createdAt,value
2019-03-19T00:01:26.558Z,59.70
2019-03-19T00:03:57.178Z,59.70
2019-03-19T00:06:27.422Z,59.60
2019-03-19T00:08:57.259Z,59.70
2019-03-19T00:11:27.093Z,59.70
2019-03-19T00:13:56.849Z,59.60
2019-03-19T00:16:26.674Z,59.60
2019-03-19T00:18:56.460Z,59.70
2019-03-19T00:21:27.158Z,59.70
2019-03-19T00:23:57.420Z,59.70
2019-03-19T00:26:28.096Z,59.70
2019-03-19T00:28:58.276Z,59.60
2019-03-19T00:31:28.108Z,59.70
2019-03-19T00:33:57.896Z,59.60
2019-03-19T00:36:28.060Z,59.50
2019-03-19T00:38:57.866Z,59.70
2019-03-19T00:41:27.697Z,59.70
2019-03-19T00:43:57.496Z,60.50
2019-03-19T00:46:27.312Z,59.90
2019-03-19T00:48:57.091Z,60.10
2019-03-19T00:51:26.907Z,60.00
2019-03-19T00:53:56.698Z,60.00
2019-03-19T00:56:26.870Z,60.00
2019-03-19T00:58:57.172Z,60.00
2019-03-19T01:01:27.010Z,60.10
2019-03-19T01:03:56.820Z,60.00
2019-03-19T01:06:26.646Z,60.00
2019-03-19T01:08:57.154Z,60.00
2019-03-19T01:11:26.990Z,60.00
2019-03-19T01:13:56.779Z,60.00
2019-03-19T01:16:26.600Z,60.00
2019-03-19T01:18:56.373Z,60.00
2019-03-19T01:21:26.378Z,60.10
2019-03-19T01:23:56.186Z,60.10
2019-03-19T01:26:26.012Z,60.30
2019-03-19T01:28:55.817Z,60.10
2019-03-19T01:31:26.129Z,60.10
2019-03-19T01:33:56.825Z,60.10
2019-03-19T01:36:26.643Z,60.20
2019-03-19T01:38:56.970Z,60.10
2019-03-19T01:41:26.831Z,60.10
2019-03-19T01:43:56.988Z,60.10
2019-03-19T01:46:26.826Z,60.10
2019-03-19T01:48:57.651Z,60.10
2019-03-19T01:51:27.906Z,60.40
2019-03-19T01:53:58.063Z,60.30
2019-03-19T01:56:28.025Z,60.50
2019-03-19T01:58:58.221Z,60.50
2019-03-19T02:01:28.613Z,61.50
2019-03-19T02:03:58.441Z,60.50
2019-03-19T02:06:28.259Z,60.60
2019-03-19T02:08:58.059Z,60.70
2019-03-19T02:11:27.889Z,60.50
2019-03-19T02:13:58.779Z,60.70
2019-03-19T02:16:28.986Z,60.70
2019-03-19T02:18:59.203Z,60.70
2019-03-19T02:21:29.057Z,60.70
2019-03-19T02:23:59.337Z,60.50
2019-03-19T02:26:29.589Z,60.70
2019-03-19T02:28:59.899Z,60.90
2019-03-19T02:31:29.721Z,60.90
2019-03-19T02:33:59.906Z,60.80
2019-03-19T02:36:29.746Z,60.90
2019-03-19T02:38:59.565Z,60.80
2019-03-19T02:41:29.908Z,60.90
2019-03-19T02:43:59.890Z,60.70
2019-03-19T02:46:30.285Z,60.90
2019-03-19T02:49:00.098Z,60.80
2019-03-19T02:51:29.931Z,61.00
2019-03-19T02:54:00.255Z,60.90
2019-03-19T02:56:33.024Z,60.90
2019-03-19T02:59:02.006Z,60.80
2019-03-19T03:01:32.213Z,60.90
2019-03-19T03:04:02.599Z,60.90
2019-03-19T03:06:32.972Z,60.90
2019-03-19T03:09:03.992Z,61.10
2019-03-19T03:11:33.832Z,61.20
2019-03-19T03:14:03.630Z,61.50
2019-03-19T03:16:33.465Z,61.30
2019-03-19T03:19:03.233Z,61.40
2019-03-19T03:21:34.687Z,61.40
2019-03-19T03:24:05.532Z,61.40
2019-03-19T03:26:47.038Z,61.40
2019-03-19T03:29:07.302Z,61.40
2019-03-19T03:31:37.152Z,61.40
2019-03-19T03:34:07.015Z,61.20
2019-03-19T03:36:38.022Z,61.10
2019-03-19T03:39:09.039Z,61.20
2019-03-19T03:41:38.959Z,61.40
2019-03-19T03:44:08.896Z,61.50
2019-03-19T03:46:38.738Z,61.40
2019-03-19T03:49:08.628Z,61.20
2019-03-19T03:51:38.881Z,61.30
2019-03-19T03:54:09.137Z,61.30
2019-03-19T03:56:39.455Z,61.40
2019-03-19T03:59:09.276Z,61.60
2019-03-19T04:01:39.110Z,62.00
2019-03-19T04:04:08.928Z,61.50
2019-03-19T04:06:39.197Z,61.50
2019-03-19T04:09:09.627Z,61.40
2019-03-19T04:11:39.452Z,61.30
2019-03-19T04:14:09.258Z,61.50
2019-03-19T04:16:39.042Z,61.50
2019-03-19T04:19:09.326Z,61.50
2019-03-19T04:21:39.102Z,61.70
2019-03-19T04:24:09.691Z,61.90
2019-03-19T04:26:39.509Z,62.10
2019-03-19T04:29:09.341Z,62.30
2019-03-19T04:31:39.147Z,62.20
2019-03-19T04:34:08.966Z,62.30
2019-03-19T04:36:39.102Z,62.20
2019-03-19T04:39:09.691Z,62.20
2019-03-19T04:41:39.962Z,62.10
2019-03-19T04:44:09.784Z,62.10
2019-03-19T04:46:39.581Z,61.90
2019-03-19T04:49:09.405Z,62.10
2019-03-19T04:51:39.198Z,62.10
2019-03-19T04:54:09.187Z,62.10
2019-03-19T04:56:39.968Z,62.00
2019-03-19T04:59:09.792Z,61.90
2019-03-19T05:01:40.088Z,62.00
2019-03-19T05:04:09.972Z,62.10
2019-03-19T05:06:40.767Z,62.10
2019-03-19T05:09:11.125Z,62.10
2019-03-19T05:11:40.887Z,62.00
2019-03-19T05:14:10.714Z,62.10
2019-03-19T05:16:41.039Z,61.90
2019-03-19T05:19:11.406Z,62.90
2019-03-19T05:21:41.199Z,62.00
2019-03-19T05:24:12.198Z,62.20
2019-03-19T05:26:42.984Z,62.30
2019-03-19T05:29:13.341Z,62.30
2019-03-19T05:31:43.117Z,62.30
2019-03-19T05:34:13.342Z,62.30
2019-03-19T05:36:43.539Z,62.30
2019-03-19T05:39:13.309Z,62.20
2019-03-19T05:41:43.166Z,62.30
2019-03-19T05:44:12.929Z,62.20
2019-03-19T05:46:42.759Z,62.10
2019-03-19T05:49:13.032Z,62.00
2019-03-19T05:51:42.861Z,62.00
2019-03-19T05:54:12.597Z,62.10
2019-03-19T05:56:42.466Z,62.10
2019-03-19T05:59:12.763Z,62.20
2019-03-19T06:01:42.582Z,62.20
2019-03-19T06:04:12.913Z,62.20
2019-03-19T06:06:42.736Z,62.20
2019-03-19T06:09:12.570Z,62.20
2019-03-19T06:11:42.399Z,62.20
2019-03-19T06:14:12.582Z,62.10
2019-03-19T06:16:42.861Z,62.20
2019-03-19T06:19:13.041Z,62.10
2019-03-19T06:21:42.866Z,62.10
2019-03-19T06:24:13.190Z,62.30
2019-03-19T06:26:43.865Z,62.30
2019-03-19T06:29:13.838Z,62.20
2019-03-19T06:31:44.064Z,62.20
2019-03-19T06:34:14.377Z,62.20
2019-03-19T06:36:44.212Z,62.30
2019-03-19T06:39:14.597Z,63.20
2019-03-19T06:41:44.488Z,62.90
2019-03-19T06:44:14.272Z,62.60
2019-03-19T06:46:44.102Z,62.50
2019-03-19T06:49:14.856Z,62.60
2019-03-19T06:51:44.667Z,63.50
2019-03-19T06:54:14.475Z,62.70
2019-03-19T06:56:44.311Z,62.60
2019-03-19T06:59:14.089Z,62.50
2019-03-19T07:01:43.921Z,62.50
2019-03-19T07:04:14.186Z,62.60
2019-03-19T07:06:44.035Z,62.60
2019-03-19T07:09:13.833Z,62.60
2019-03-19T07:11:44.196Z,62.70
2019-03-19T07:14:14.108Z,62.70
2019-03-19T07:16:43.961Z,62.70
2019-03-19T07:19:13.743Z,62.70
2019-03-19T07:21:44.114Z,62.70
2019-03-19T07:24:13.918Z,62.70
2019-03-19T07:26:44.100Z,62.60
2019-03-19T07:29:13.911Z,62.60
2019-03-19T07:31:43.814Z,62.60
2019-03-19T07:34:14.131Z,62.60
2019-03-19T07:36:43.956Z,62.70
2019-03-19T07:39:14.195Z,62.70
2019-03-19T07:41:44.057Z,62.70
2019-03-19T07:44:14.406Z,62.70
2019-03-19T07:46:45.952Z,62.80
2019-03-19T07:49:16.032Z,62.90
2019-03-19T07:51:45.843Z,62.80
2019-03-19T07:54:15.631Z,62.80
2019-03-19T07:56:46.251Z,62.80
2019-03-19T07:59:16.087Z,62.80
2019-03-19T08:01:46.640Z,62.80
2019-03-19T08:04:16.791Z,62.90
2019-03-19T08:06:47.159Z,62.90
2019-03-19T08:09:17.298Z,62.90
2019-03-19T08:11:47.874Z,62.90
2019-03-19T08:14:18.167Z,62.90
2019-03-19T08:16:47.982Z,63.10
2019-03-19T08:19:17.825Z,62.90
2019-03-19T08:21:47.654Z,63.00
2019-03-19T08:24:18.369Z,62.90
2019-03-19T08:26:49.178Z,63.00
2019-03-19T08:29:19.086Z,64.00
2019-03-19T08:31:49.371Z,62.90
2019-03-19T08:34:19.585Z,63.00
2019-03-19T08:36:49.446Z,62.90
2019-03-19T08:39:20.759Z,62.90
2019-03-19T08:41:50.664Z,62.90
2019-03-19T08:44:27.610Z,62.90
2019-03-19T08:46:52.680Z,62.90
2019-03-19T08:49:23.610Z,62.80
2019-03-19T08:51:54.304Z,62.90
2019-03-19T08:54:24.363Z,62.80
2019-03-19T08:56:54.380Z,62.90
2019-03-19T08:59:24.222Z,62.90
2019-03-19T09:01:54.510Z,62.80
2019-03-19T09:04:24.535Z,62.70
2019-03-19T09:06:54.815Z,62.70
2019-03-19T09:09:25.869Z,62.70
2019-03-19T09:11:55.741Z,62.70
2019-03-19T09:14:25.528Z,62.80
2019-03-19T09:16:56.016Z,62.70
2019-03-19T09:19:25.798Z,62.70
2019-03-19T09:21:55.623Z,62.50
2019-03-19T09:24:25.787Z,62.70
2019-03-19T09:26:56.544Z,62.20
2019-03-19T09:29:26.799Z,62.20
2019-03-19T09:31:56.618Z,62.20
2019-03-19T09:34:26.398Z,62.00
2019-03-19T09:36:57.627Z,61.90
2019-03-19T09:39:27.588Z,61.70
2019-03-19T09:41:57.788Z,61.60
2019-03-19T09:44:27.876Z,61.20
2019-03-19T09:46:57.804Z,61.10
2019-03-19T09:49:27.547Z,61.30
2019-03-19T09:51:57.913Z,61.20
2019-03-19T09:54:28.942Z,61.20
2019-03-19T09:56:58.708Z,61.20
2019-03-19T09:59:28.661Z,61.10
2019-03-19T10:01:58.425Z,61.00
2019-03-19T10:04:28.259Z,60.90
2019-03-19T10:07:05.677Z,60.80
2019-03-19T10:09:30.216Z,60.40
2019-03-19T10:12:00.014Z,60.20
2019-03-19T10:14:29.835Z,60.20
2019-03-19T10:16:59.601Z,60.00
2019-03-19T10:19:29.869Z,59.30
2019-03-19T10:22:00.068Z,59.70
2019-03-19T10:24:29.874Z,59.70
2019-03-19T10:26:59.646Z,60.60
2019-03-19T10:29:37.952Z,59.80
2019-03-19T10:32:01.392Z,59.70
2019-03-19T10:34:33.209Z,59.60
2019-03-19T10:37:03.067Z,59.40
2019-03-19T10:39:33.447Z,59.20
2019-03-19T10:42:03.691Z,59.00
2019-03-19T10:44:33.539Z,59.00
2019-03-19T10:47:03.850Z,59.00
2019-03-19T10:49:33.661Z,58.90
2019-03-19T10:52:03.895Z,58.80
2019-03-19T10:54:34.091Z,58.70
2019-03-19T10:57:03.902Z,58.30
2019-03-19T10:59:34.139Z,58.00
2019-03-19T11:02:04.980Z,57.80
2019-03-19T11:04:34.741Z,57.70
2019-03-19T11:07:04.496Z,57.80
2019-03-19T11:09:34.662Z,57.70
2019-03-19T11:12:04.959Z,57.60
2019-03-19T11:14:34.872Z,57.60
2019-03-19T11:17:05.170Z,56.90
2019-03-19T11:19:34.965Z,57.60
2019-03-19T11:22:04.682Z,57.50
2019-03-19T11:24:34.486Z,57.50
2019-03-19T11:27:04.283Z,57.40
2019-03-19T11:29:34.094Z,57.30
2019-03-19T11:32:04.368Z,57.40
2019-03-19T11:34:34.189Z,57.30
2019-03-19T11:37:04.390Z,57.90
2019-03-19T11:39:34.231Z,57.20
2019-03-19T11:42:04.076Z,57.20
2019-03-19T11:44:33.884Z,57.30
2019-03-19T11:47:03.583Z,57.20
2019-03-19T11:49:33.502Z,57.30
2019-03-19T11:52:03.278Z,57.10
2019-03-19T11:54:33.451Z,57.60
2019-03-19T11:57:03.223Z,56.90
2019-03-19T11:59:33.005Z,56.80
2019-03-19T12:02:03.199Z,56.60
2019-03-19T12:04:33.494Z,56.10
2019-03-19T12:07:04.116Z,55.80
2019-03-19T12:09:33.908Z,55.70
2019-03-19T12:12:03.689Z,55.50
2019-03-19T12:14:33.531Z,55.40
2019-03-19T12:17:03.747Z,55.30
2019-03-19T12:19:34.371Z,55.30
2019-03-19T12:22:04.569Z,55.30
2019-03-19T12:24:34.717Z,55.30
2019-03-19T12:27:04.454Z,55.10
2019-03-19T12:29:34.594Z,55.20
2019-03-19T12:32:04.326Z,55.30
2019-03-19T12:34:34.086Z,55.40
2019-03-19T12:37:04.410Z,55.50
2019-03-19T12:39:34.185Z,55.50
2019-03-19T12:42:04.882Z,55.60
2019-03-19T12:44:35.112Z,55.60
2019-03-19T12:47:05.355Z,55.60
2019-03-19T12:49:36.738Z,56.20
2019-03-19T12:52:06.923Z,55.50
2019-03-19T12:54:37.862Z,55.60
2019-03-19T12:57:07.806Z,55.50
2019-03-19T12:59:37.634Z,55.10
2019-03-19T13:02:07.800Z,54.50
2019-03-19T13:04:38.197Z,54.70
2019-03-19T13:07:08.003Z,54.90
2019-03-19T13:09:38.516Z,55.30
2019-03-19T13:12:08.286Z,55.80
2019-03-19T13:14:38.093Z,56.20
2019-03-19T13:17:07.944Z,56.60
2019-03-19T13:19:37.780Z,56.70
2019-03-19T13:22:07.548Z,56.80
2019-03-19T13:24:37.920Z,56.50
2019-03-19T13:27:09.634Z,56.00
2019-03-19T13:29:39.704Z,55.70
2019-03-19T13:32:09.529Z,54.90
2019-03-19T13:34:39.330Z,54.80
2019-03-19T13:37:09.144Z,54.30
2019-03-19T13:39:38.997Z,53.80
2019-03-19T13:42:08.693Z,53.20
2019-03-19T13:44:39.600Z,53.20
2019-03-19T13:47:09.410Z,53.00
2019-03-19T13:49:40.133Z,52.30
2019-03-19T13:52:10.306Z,52.20
2019-03-19T13:54:40.177Z,51.80
2019-03-19T13:57:10.092Z,51.30
2019-03-19T13:59:40.416Z,50.80
2019-03-19T14:02:10.203Z,50.20
2019-03-19T14:04:40.571Z,49.60
2019-03-19T14:07:10.984Z,49.10
2019-03-19T14:09:40.833Z,49.00
2019-03-19T14:12:10.921Z,48.60
2019-03-19T14:14:40.741Z,48.40
2019-03-19T14:17:10.562Z,48.30
2019-03-19T14:19:40.371Z,48.20
2019-03-19T14:22:10.644Z,48.30
2019-03-19T14:24:40.471Z,48.30
2019-03-19T14:27:10.181Z,48.00
2019-03-19T14:29:40.490Z,48.20
2019-03-19T14:32:10.250Z,48.20
2019-03-19T14:34:40.089Z,48.60
2019-03-19T14:37:12.267Z,48.70
2019-03-19T14:39:41.353Z,49.00
2019-03-19T14:42:11.163Z,49.20
2019-03-19T14:44:40.934Z,49.40
2019-03-19T14:47:11.205Z,49.60
2019-03-19T14:49:46.531Z,49.60
2019-03-19T14:52:12.952Z,49.50
2019-03-19T14:54:43.561Z,49.40
2019-03-19T14:57:13.770Z,49.30
2019-03-19T14:59:43.584Z,48.90
2019-03-19T15:02:13.859Z,48.20
2019-03-19T15:04:43.639Z,47.70
2019-03-19T15:07:13.452Z,46.70
2019-03-19T15:09:43.212Z,45.90
2019-03-19T15:12:13.513Z,45.80
2019-03-19T15:14:43.275Z,45.60
2019-03-19T15:17:13.652Z,45.70
2019-03-19T15:19:43.422Z,45.40
2019-03-19T15:22:13.270Z,45.30
2019-03-19T15:24:43.026Z,44.80
2019-03-19T15:27:13.443Z,44.50
2019-03-19T15:29:43.832Z,44.90
2019-03-19T15:32:14.699Z,45.20
2019-03-19T15:34:44.473Z,45.70
2019-03-19T15:37:14.266Z,45.50
2019-03-19T15:39:44.355Z,45.90
2019-03-19T15:42:14.620Z,45.90
2019-03-19T15:44:44.411Z,44.90
2019-03-19T15:47:14.210Z,45.10
2019-03-19T15:49:44.038Z,45.40
2019-03-19T15:52:13.759Z,45.40
2019-03-19T15:54:43.604Z,45.60
2019-03-19T15:57:13.452Z,45.70
2019-03-19T15:59:43.626Z,45.70
2019-03-19T16:02:13.453Z,45.60
2019-03-19T16:04:43.354Z,45.50
2019-03-19T16:07:14.083Z,45.40
2019-03-19T16:09:44.548Z,44.80
2019-03-19T16:12:14.836Z,44.30
2019-03-19T16:14:44.696Z,44.00
2019-03-19T16:17:14.985Z,43.70
2019-03-19T16:19:45.350Z,43.60
2019-03-19T16:22:15.951Z,43.40
2019-03-19T16:24:46.195Z,43.50
2019-03-19T16:27:16.518Z,44.00
2019-03-19T16:29:46.852Z,43.10
2019-03-19T16:32:16.677Z,43.00
2019-03-19T16:34:47.611Z,42.70
2019-03-19T16:37:17.774Z,42.70
2019-03-19T16:39:48.117Z,42.70
2019-03-19T16:42:18.616Z,42.70
2019-03-19T16:44:48.408Z,42.90
2019-03-19T16:47:19.159Z,43.00
2019-03-19T16:49:49.019Z,43.20
2019-03-19T16:52:20.802Z,43.30
2019-03-19T16:54:50.633Z,43.50
2019-03-19T16:57:20.456Z,43.60
2019-03-19T16:59:50.278Z,43.40
2019-03-19T17:02:20.084Z,43.60
2019-03-19T17:04:50.255Z,43.50
2019-03-19T17:07:19.997Z,43.30
2019-03-19T17:09:49.818Z,43.70
2019-03-19T17:12:20.503Z,44.00
2019-03-19T17:14:50.316Z,44.20
2019-03-19T17:17:20.733Z,44.20
2019-03-19T17:19:50.563Z,44.40
2019-03-19T17:22:20.325Z,44.50
2019-03-19T17:24:51.261Z,44.70
2019-03-19T17:27:21.487Z,45.00
2019-03-19T17:29:52.399Z,45.10
2019-03-19T17:32:22.189Z,45.20
2019-03-19T17:34:52.447Z,45.40
2019-03-19T17:37:22.734Z,45.40
2019-03-19T17:39:52.643Z,45.50
2019-03-19T17:42:22.429Z,45.60
2019-03-19T17:44:52.246Z,45.70
2019-03-19T17:47:22.497Z,45.60
2019-03-19T17:49:53.061Z,45.60
2019-03-19T17:52:23.337Z,45.60
2019-03-19T17:54:53.160Z,45.60
2019-03-19T17:57:24.364Z,45.90
2019-03-19T17:59:54.199Z,45.90
2019-03-19T18:02:24.463Z,46.00
2019-03-19T18:04:55.237Z,46.10
2019-03-19T18:07:25.454Z,46.20
2019-03-19T18:09:55.275Z,46.40
2019-03-19T18:12:25.041Z,46.30
2019-03-19T18:14:55.285Z,46.20
2019-03-19T18:17:25.977Z,46.20
2019-03-19T18:19:56.332Z,46.40
2019-03-19T18:22:26.106Z,46.50
2019-03-19T18:24:56.804Z,46.60
2019-03-19T18:27:27.063Z,46.60
2019-03-19T18:29:58.922Z,46.60
2019-03-19T18:32:35.068Z,46.70
2019-03-19T18:35:02.196Z,46.50
2019-03-19T18:37:31.992Z,46.50
2019-03-19T18:40:01.797Z,46.70
2019-03-19T18:42:31.583Z,46.80
2019-03-19T18:45:01.853Z,46.80
2019-03-19T18:47:31.623Z,46.70
2019-03-19T18:50:01.502Z,46.80
2019-03-19T18:52:31.781Z,46.80
2019-03-19T18:55:01.596Z,47.00
2019-03-19T18:57:31.413Z,47.00
2019-03-19T19:00:01.359Z,47.10
2019-03-19T19:02:31.145Z,47.80
2019-03-19T19:05:00.955Z,47.20
2019-03-19T19:07:31.476Z,47.10
2019-03-19T19:10:01.302Z,47.20
2019-03-19T19:12:31.639Z,47.30
2019-03-19T19:15:01.844Z,47.40
2019-03-19T19:17:32.037Z,47.50
2019-03-19T19:20:03.583Z,47.30
2019-03-19T19:22:33.370Z,47.30
2019-03-19T19:25:03.655Z,47.30
2019-03-19T19:27:33.891Z,47.40
2019-03-19T19:30:04.932Z,47.50
2019-03-19T19:32:35.584Z,47.50
2019-03-19T19:35:07.118Z,47.50
2019-03-19T19:37:37.606Z,47.60
2019-03-19T19:40:09.163Z,47.60
2019-03-19T19:42:39.972Z,47.70
2019-03-19T19:45:10.396Z,47.90
2019-03-19T19:47:40.693Z,48.00
2019-03-19T19:50:12.898Z,48.10
2019-03-19T19:52:43.809Z,48.50
2019-03-19T19:55:14.901Z,48.30
2019-03-19T19:57:45.664Z,48.30
2019-03-19T20:00:17.533Z,48.40
2019-03-19T20:02:47.938Z,48.50
2019-03-19T20:05:24.212Z,48.50
2019-03-19T20:07:54.418Z,48.40
2019-03-19T20:10:24.687Z,48.40
2019-03-19T20:12:54.558Z,48.30
2019-03-19T20:15:25.138Z,48.40
2019-03-19T20:17:56.021Z,48.40
2019-03-19T20:20:26.335Z,48.50
2019-03-19T20:22:56.115Z,48.50
2019-03-19T20:25:25.932Z,48.60
2019-03-19T20:27:56.322Z,48.70
2019-03-19T20:30:26.509Z,48.80
2019-03-19T20:32:56.764Z,48.70
2019-03-19T20:35:26.660Z,48.90
2019-03-19T20:37:56.913Z,48.90
2019-03-19T20:40:26.714Z,49.00
2019-03-19T20:42:56.944Z,49.00
2019-03-19T20:45:27.339Z,49.00
2019-03-19T20:47:57.600Z,49.00
2019-03-19T20:50:29.325Z,49.20
2019-03-19T20:52:59.078Z,49.20
2019-03-19T20:55:28.931Z,49.30
2019-03-19T20:57:59.329Z,49.40
2019-03-19T21:00:29.461Z,49.40
2019-03-19T21:02:59.614Z,49.10
2019-03-19T21:05:29.788Z,49.50
2019-03-19T21:07:59.971Z,49.50
2019-03-19T21:10:29.747Z,49.70
2019-03-19T21:13:00.281Z,49.70
2019-03-19T21:15:30.197Z,49.80
2019-03-19T21:18:00.490Z,49.80
2019-03-19T21:20:31.095Z,49.80
2019-03-19T21:23:01.316Z,49.90
2019-03-19T21:25:31.425Z,50.00
2019-03-19T21:28:01.229Z,50.10
2019-03-19T21:30:30.991Z,50.10
2019-03-19T21:33:00.786Z,50.20
2019-03-19T21:35:30.546Z,50.10
2019-03-19T21:38:00.783Z,50.10
2019-03-19T21:40:30.552Z,50.20
2019-03-19T21:43:00.343Z,50.10
2019-03-19T21:45:30.154Z,50.20
2019-03-19T21:48:00.316Z,50.10
2019-03-19T21:50:31.553Z,50.20
2019-03-19T21:53:01.365Z,50.30
2019-03-19T21:55:31.181Z,50.30
2019-03-19T21:58:01.520Z,50.30
2019-03-19T22:00:31.283Z,50.90
2019-03-19T22:03:01.100Z,50.40
2019-03-19T22:05:32.094Z,50.30
2019-03-19T22:08:02.421Z,50.30
2019-03-19T22:10:32.158Z,50.30
2019-03-19T22:13:01.946Z,50.40
2019-03-19T22:15:32.226Z,50.20
2019-03-19T22:18:02.389Z,50.20
2019-03-19T22:20:32.153Z,50.30
2019-03-19T22:23:02.517Z,50.40
2019-03-19T22:25:32.255Z,50.50
2019-03-19T22:28:02.064Z,51.30
2019-03-19T22:30:32.325Z,50.70
2019-03-19T22:33:02.789Z,50.70
2019-03-19T22:35:32.572Z,50.60
2019-03-19T22:38:02.948Z,50.60
2019-03-19T22:40:33.203Z,50.70
2019-03-19T22:43:03.403Z,50.70
2019-03-19T22:45:33.562Z,50.70
2019-03-19T22:48:03.391Z,50.70
2019-03-19T22:50:33.594Z,50.80
2019-03-19T22:53:03.406Z,50.90
2019-03-19T22:55:33.730Z,50.90
2019-03-19T22:58:03.723Z,50.90
2019-03-19T23:00:43.367Z,50.80
2019-03-19T23:03:13.539Z,51.00
2019-03-19T23:05:43.312Z,51.00
2019-03-19T23:08:13.706Z,51.10
2019-03-19T23:10:43.917Z,51.00
2019-03-19T23:13:13.951Z,51.10
2019-03-19T23:15:44.143Z,51.10
2019-03-19T23:18:14.048Z,51.30
2019-03-19T23:20:43.797Z,51.30
2019-03-19T23:23:13.571Z,51.40
2019-03-19T23:25:43.327Z,51.40
2019-03-19T23:28:13.139Z,51.40
2019-03-19T23:30:42.918Z,51.60
2019-03-19T23:33:13.277Z,51.60
2019-03-19T23:35:43.048Z,51.70
2019-03-19T23:38:13.213Z,51.80
2019-03-19T23:40:43.411Z,51.80
2019-03-19T23:43:13.768Z,52.00
2019-03-19T23:45:43.546Z,51.90
2019-03-19T23:48:13.810Z,51.90
2019-03-19T23:50:43.583Z,51.90
2019-03-19T23:53:13.826Z,52.00
2019-03-19T23:55:43.632Z,52.00
2019-03-19T23:58:13.867Z,52.00
